NC9W-13 Weather Reports


time (UTC)temp
C
wind
direction
speed
KPH
gust
KPH
rain 1hr
cm
rain 24hr
cm
rain mn
cm
humidity
%
barometer
mb
20260906004216 22 0 0.0 6.4 0.51 0.66 0.66 93 1010.0
20260906003717 23 210 0.0 6.4 0.51 0.66 0.66 92 1009.8
20260906003003 23 210 3.2 12.9 0.51 0.66 0.66 91 1010.0
20260906002503 23 210 0.0 12.9 0.51 0.66 0.66 90 1010.3
20260906002003 24 210 3.2 12.9 0.51 0.66 0.66 89 1010.6
20260906001503 24 210 3.2 12.9 0.30 0.38 0.43 88 1011.3
20260906001003 25 210 0.0 6.4 0.18 0.18 0.18 91 1011.1
20260906000503 25 0 0.0 0.0 0.15 0.15 0.15 89 1011.1
20260906000003 25 210 0.0 9.7 0.15 0.15 0.15 90 1011.4
20260905235503 25 210 0.0 9.7 0.15 0.15 0.15 88 1011.3
20260905235003 25 0 0.0 0.0 0.15 0.15 0.15 89 1011.1
20260905234717 25 0 0.0 0.0 0.15 0.15 0.15 88 1011.2
20260905234218 26 0 0.0 0.0 0.15 0.15 0.15 87 1011.2
20260905233503 26 0 0.0 0.0 0.15 0.15 0.15 85 1011.2
20260905233003 27 0 0.0 0.0 0.15 0.15 0.15 82 1010.8
20260905232503 27 210 0.0 3.2 0.15 0.15 0.15 80 1010.9
20260905232003 28 210 3.2 12.9 0.15 0.15 0.15 77 1011.0
20260905231503 30 210 6.4 19.3 0.08 0.08 0.08 71 1010.9
20260905231218 31 210 3.2 19.3 0.00 0.00 0.00 69 1011.0
20260905230503 32 0 0.0 0.0 0.00 0.00 0.00 68 1010.9
20260905230003 32 0 0.0 0.0 0.00 0.00 0.00 66 1010.6
20260905225503 33 0 0.0 0.0 0.00 0.00 0.00 63 1010.6
20260905225003 33 0 0.0 0.0 0.00 0.00 0.00 65 1010.3
20260905224503 33 0 0.0 0.0 0.00 0.00 0.00 62 1010.1
20260905224003 33 0 0.0 0.0 0.00 0.00 0.00 61 1010.3
20260905223503 33 210 0.0 3.2 0.00 0.00 0.00 59 1010.3
20260905223003 33 210 0.0 3.2 0.00 0.00 0.00 58 1010.3
20260905222503 33 0 0.0 0.0 0.00 0.00 0.00 60 1010.2
20260905222003 33 0 0.0 0.0 0.00 0.00 0.00 58 1010.2
20260905221503 33 0 0.0 0.0 0.00 0.00 0.00 58 1010.3
20260905221003 33 210 0.0 3.2 0.00 0.00 0.00 59 1010.2
20260905220503 33 210 0.0 3.2 0.00 0.00 0.00 59 1010.2
20260905220003 33 210 0.0 3.2 0.00 0.00 0.00 59 1010.3
20260905215503 33 0 0.0 0.0 0.00 0.00 0.00 60 1010.4
20260905215003 33 0 0.0 0.0 0.00 0.00 0.00 61 1010.4
20260905214503 33 210 0.0 6.4 0.00 0.00 0.00 58 1010.4
20260905214003 33 210 0.0 6.4 0.00 0.00 0.00 59 1010.4
20260905213503 33 210 0.0 9.7 0.00 0.00 0.00 58 1010.4
20260905213003 33 210 0.0 9.7 0.00 0.00 0.00 59 1010.4
20260905212503 33 210 0.0 9.7 0.00 0.00 0.00 58 1010.4
20260905212003 33 0 0.0 0.0 0.00 0.00 0.00 58 1010.4
20260905211503 33 210 0.0 6.4 0.00 0.00 0.00 58 1010.5
20260905211003 33 210 0.0 6.4 0.00 0.00 0.00 57 1010.5
20260905210503 33 210 0.0 6.4 0.00 0.00 0.00 58 1010.5
20260905210003 33 0 0.0 0.0 0.00 0.00 0.00 57 1010.6
20260905205503 33 210 0.0 3.2 0.00 0.00 0.00 57 1010.6
20260905205217 33 210 0.0 3.2 0.00 0.00 0.00 57 1010.7
20260905204503 33 210 0.0 6.4 0.00 0.00 0.00 56 1010.7
20260905204003 34 210 0.0 6.4 0.00 0.00 0.00 55 1010.8
20260905203503 34 210 0.0 6.4 0.00 0.00 0.00 55 1010.8
20260905203217 34 210 0.0 6.4 0.00 0.00 0.00 56 1010.9
20260905202503 34 210 0.0 6.4 0.00 0.00 0.00 55 1010.8
20260905202003 34 210 3.2 6.4 0.00 0.00 0.00 55 1011.1
20260905201503 35 210 3.2 6.4 0.00 0.00 0.00 54 1011.1
20260905201003 35 210 0.0 6.4 0.00 0.00 0.00 54 1011.1
20260905200503 35 210 0.0 6.4 0.00 0.00 0.00 53 1011.1
20260905200003 35 210 0.0 6.4 0.00 0.00 0.00 54 1011.2
20260905195503 35 210 3.2 9.7 0.00 0.00 0.00 55 1011.2
20260905195003 35 210 3.2 9.7 0.00 0.00 0.00 53 1011.3
20260905194503 35 210 3.2 12.9 0.00 0.00 0.00 51 1011.4
20260905194003 36 210 0.0 12.9 0.00 0.00 0.00 51 1011.4
20260905193503 36 210 0.0 3.2 0.00 0.00 0.00 51 1011.5
20260905193216 36 210 0.0 3.2 0.00 0.00 0.00 51 1011.5
20260905192503 36 210 0.0 3.2 0.00 0.00 0.00 52 1011.5
20260905192003 36 210 0.0 3.2 0.00 0.00 0.00 51 1011.6
20260905191503 36 210 0.0 3.2 0.00 0.00 0.00 51 1011.6
20260905191003 36 210 0.0 6.4 0.00 0.00 0.00 52 1011.6
20260905190503 36 210 0.0 6.4 0.00 0.00 0.00 52 1011.8
20260905190003 36 210 0.0 3.2 0.00 0.00 0.00 52 1011.8
20260905185717 36 210 0.0 3.2 0.00 0.00 0.00 53 1011.9
20260905185003 35 210 0.0 3.2 0.00 0.00 0.00 53 1012.1
20260905184503 35 210 0.0 6.4 0.00 0.00 0.00 52 1012.1
20260905184003 35 210 3.2 6.4 0.00 0.00 0.00 51 1012.2
20260905183503 35 210 3.2 9.7 0.00 0.00 0.00 53 1012.3
20260905183003 35 210 3.2 9.7 0.00 0.00 0.00 52 1012.3
20260905182503 35 210 0.0 9.7 0.00 0.00 0.00 53 1012.4
20260905182003 35 210 0.0 9.7 0.00 0.00 0.00 53 1012.5
20260905181717 35 210 3.2 9.7 0.00 0.00 0.00 53 1012.5
20260905181003 35 210 3.2 9.7 0.00 0.00 0.00 53 1012.5
20260905180503 35 210 3.2 9.7 0.00 0.00 0.00 54 1012.6
20260905180003 35 210 3.2 12.9 0.00 0.00 0.00 54 1012.6
20260905175503 34 210 3.2 12.9 0.00 0.00 0.00 54 1012.6
20260905175003 34 210 3.2 16.1 0.00 0.00 0.00 54 1012.7
20260905174503 34 210 3.2 16.1 0.00 0.00 0.00 54 1012.9
20260905174218 34 210 3.2 9.7 0.00 0.00 0.00 54 1012.8
20260905173503 34 210 0.0 12.9 0.00 0.00 0.00 54 1012.8
20260905173003 34 210 3.2 12.9 0.00 0.00 0.00 54 1012.7
20260905172503 33 210 6.4 19.3 0.00 0.00 0.00 57 1012.8
20260905172003 33 210 6.4 19.3 0.00 0.00 0.00 56 1013.0
20260905171503 33 210 3.2 9.7 0.00 0.00 0.00 57 1013.0
20260905171003 33 210 3.2 16.1 0.00 0.00 0.00 57 1013.1
20260905170503 33 210 6.4 16.1 0.00 0.00 0.00 56 1013.3
20260905170218 33 210 3.2 9.7 0.00 0.00 0.00 58 1013.3
20260905165503 33 210 3.2 12.9 0.00 0.00 0.00 57 1013.4
20260905165003 33 210 3.2 12.9 0.00 0.00 0.00 58 1013.5
20260905164503 33 210 3.2 9.7 0.00 0.00 0.00 60 1013.5
20260905164217 33 210 3.2 12.9 0.00 0.00 0.00 59 1013.5
20260905163716 32 210 3.2 16.1 0.00 0.00 0.00 60 1013.5
20260905163003 32 210 3.2 16.1 0.00 0.00 0.00 61 1013.4
20260905162503 32 210 3.2 16.1 0.00 0.00 0.00 64 1013.5
20260905162003 31 210 3.2 12.9 0.00 0.00 0.00 63 1013.5
20260905161718 31 210 6.4 16.1 0.00 0.00 0.00 64 1013.5
20260905161003 31 210 6.4 16.1 0.00 0.00 0.00 64 1013.6
20260905160503 31 210 6.4 16.1 0.00 0.00 0.00 63 1013.6
20260905160003 31 210 3.2 16.1 0.00 0.00 0.00 65 1013.7
20260905155503 31 210 3.2 16.1 0.00 0.00 0.00 66 1013.9
20260905155217 31 210 3.2 9.7 0.00 0.00 0.00 65 1013.9
20260905154503 31 210 0.0 16.1 0.00 0.00 0.00 69 1013.9
20260905154003 30 210 0.0 16.1 0.00 0.00 0.00 70 1013.9
20260905153718 30 210 3.2 16.1 0.00 0.00 0.00 70 1013.9
20260905153003 29 210 6.4 16.1 0.00 0.00 0.00 70 1013.9
20260905152503 28 210 3.2 16.1 0.00 0.00 0.00 72 1014.1
20260905152003 28 210 6.4 19.3 0.00 0.00 0.00 74 1014.1
20260905151503 28 210 6.4 19.3 0.00 0.00 0.00 73 1014.2
20260905151003 28 210 6.4 19.3 0.00 0.00 0.00 74 1014.2
20260905150503 27 210 6.4 19.3 0.00 0.00 0.00 76 1014.3
20260905150003 27 210 3.2 19.3 0.00 0.00 0.00 76 1014.3
20260905145503 27 210 3.2 9.7 0.00 0.00 0.00 76 1014.3
20260905145003 27 210 3.2 9.7 0.00 0.00 0.00 78 1014.4
20260905144503 26 210 3.2 12.9 0.00 0.00 0.00 80 1014.5
20260905144217 26 210 3.2 12.9 0.00 0.00 0.00 80 1014.4
20260905143503 25 210 3.2 9.7 0.00 0.00 0.00 84 1014.3
20260905143003 25 210 0.0 6.4 0.00 0.00 0.00 85 1014.3
20260905142503 25 210 0.0 6.4 0.00 0.00 0.00 86 1014.4
20260905142003 24 210 0.0 6.4 0.00 0.00 0.00 86 1014.5
20260905141503 24 210 3.2 12.9 0.00 0.00 0.00 85 1014.4
20260905141003 24 210 3.2 12.9 0.00 0.00 0.00 84 1014.4
20260905140503 25 210 0.0 6.4 0.00 0.00 0.00 84 1014.6
20260905140004 25 210 0.0 9.7 0.00 0.00 0.00 82 1014.8
20260905135503 25 210 0.0 9.7 0.00 0.00 0.00 82 1015.2
20260905135216 25 210 3.2 16.1 0.00 0.00 0.00 82 1015.2
20260905134717 25 210 3.2 16.1 0.00 0.00 0.00 83 1015.2
20260905134003 25 210 3.2 16.1 0.00 0.00 0.00 83 1015.0
20260905133717 25 210 3.2 16.1 0.00 0.00 0.00 82 1015.0
20260905133003 26 210 0.0 9.7 0.00 0.00 0.00 83 1014.8
20260905132503 26 210 0.0 9.7 0.00 0.00 0.00 84 1014.7
20260905132003 25 210 3.2 12.9 0.00 0.00 0.00 86 1014.6
20260905131503 24 210 3.2 12.9 0.00 0.00 0.00 88 1014.6
20260905131003 23 210 3.2 9.7 0.00 0.00 0.00 88 1014.7
20260905130503 23 210 0.0 9.7 0.00 0.00 0.00 88 1014.8
20260905130003 23 210 0.0 9.7 0.00 0.00 0.00 88 1014.9
20260905125503 23 210 0.0 9.7 0.00 0.00 0.00 88 1014.5
20260905125003 23 210 0.0 9.7 0.00 0.00 0.00 88 1013.9
20260905124503 23 210 0.0 6.4 0.00 0.00 0.00 88 1013.8
20260905124003 23 210 0.0 6.4 0.00 0.00 0.00 88 1014.1
20260905123503 23 210 0.0 6.4 0.00 0.00 0.00 88 1014.3
20260905123003 23 210 0.0 6.4 0.00 0.00 0.00 88 1014.2
20260905122503 23 210 0.0 9.7 0.00 0.00 0.00 89 1014.3
20260905122003 23 210 0.0 9.7 0.00 0.00 0.00 88 1014.4
20260905121503 23 210 0.0 6.4 0.00 0.00 0.00 89 1014.4
20260905121003 23 210 0.0 6.4 0.00 0.00 0.00 89 1014.2
20260905120503 23 210 0.0 6.4 0.00 0.00 0.00 89 1014.1
20260905120003 23 210 0.0 6.4 0.00 0.00 0.00 89 1013.9
20260905115717 23 210 0.0 9.7 0.00 0.00 0.00 89 1013.8
20260905115218 23 210 0.0 16.1 0.00 0.00 0.00 89 1013.7
20260905114717 23 210 3.2 16.1 0.00 0.00 0.00 89 1013.8
20260905114003 23 210 3.2 12.9 0.00 0.00 0.00 90 1013.9
20260905113503 23 210 3.2 12.9 0.00 0.00 0.00 92 1013.7
20260905113003 23 210 0.0 9.7 0.00 0.00 0.00 94 1013.7
20260905112503 23 0 0.0 0.0 0.00 0.00 0.00 95 1013.4
20260905112003 23 0 0.0 0.0 0.00 0.00 0.00 96 1013.3
20260905111503 23 0 0.0 0.0 0.00 0.00 0.00 95 1013.2
20260905111217 23 0 0.0 0.0 0.00 0.00 0.00 95 1013.2
20260905110503 23 0 0.0 0.0 0.00 0.00 0.00 95 1013.0
20260905110003 23 0 0.0 0.0 0.00 0.00 0.00 95 1012.8
20260905105503 23 0 0.0 0.0 0.00 0.00 0.00 95 1012.8
20260905105003 23 0 0.0 0.0 0.00 0.00 0.00 95 1012.7
20260905104503 23 0 0.0 0.0 0.00 0.00 0.00 95 1012.7
20260905104003 23 0 0.0 0.0 0.00 0.00 0.00 95 1012.7
20260905103718 23 0 0.0 0.0 0.00 0.00 0.00 95 1012.6
20260905103003 23 0 0.0 0.0 0.00 0.00 0.00 94 1012.4
20260905102503 23 0 0.0 0.0 0.00 0.00 0.00 94 1012.4
20260905102003 23 0 0.0 0.0 0.00 0.00 0.00 94 1012.5
20260905101503 23 0 0.0 0.0 0.00 0.00 0.00 94 1012.6
20260905101003 23 0 0.0 0.0 0.00 0.00 0.00 94 1012.7
20260905100503 23 0 0.0 0.0 0.00 0.00 0.00 94 1012.9
20260905100003 23 210 0.0 3.2 0.00 0.00 0.00 94 1012.9
20260905095503 23 210 0.0 6.4 0.00 0.00 0.00 94 1013.0
20260905095003 23 210 0.0 6.4 0.00 0.00 0.00 94 1012.9
20260905094503 23 0 0.0 0.0 0.00 0.00 0.00 94 1012.5
20260905094003 23 0 0.0 0.0 0.00 0.00 0.00 94 1012.5
20260905093503 23 0 0.0 0.0 0.00 0.00 0.00 94 1012.4
20260905093003 23 0 0.0 0.0 0.00 0.00 0.00 94 1012.2
20260905092503 23 0 0.0 0.0 0.00 0.00 0.00 93 1012.0
20260905092003 23 0 0.0 0.0 0.00 0.00 0.00 93 1011.9
20260905091503 23 0 0.0 0.0 0.00 0.00 0.00 94 1011.9
20260905091003 23 0 0.0 0.0 0.00 0.00 0.00 94 1011.8
20260905090503 23 0 0.0 0.0 0.00 0.00 0.00 93 1011.8
20260905090003 23 0 0.0 0.0 0.00 0.00 0.00 94 1011.8
20260905085503 23 0 0.0 0.0 0.00 0.00 0.00 94 1011.8
20260905085003 23 0 0.0 0.0 0.00 0.00 0.00 94 1011.7
20260905084503 23 0 0.0 0.0 0.00 0.00 0.00 93 1011.8
20260905084003 23 0 0.0 0.0 0.00 0.00 0.00 93 1011.8
20260905083503 23 0 0.0 0.0 0.00 0.00 0.00 93 1011.8
20260905083003 23 0 0.0 0.0 0.00 0.00 0.00 93 1011.9
20260905082503 23 0 0.0 0.0 0.00 0.00 0.00 93 1011.9
20260905082003 24 0 0.0 0.0 0.00 0.00 0.00 93 1011.9
20260905081503 24 0 0.0 0.0 0.00 0.00 0.00 93 1012.0
20260905081003 24 0 0.0 0.0 0.00 0.00 0.00 93 1012.1
20260905080503 24 210 0.0 3.2 0.00 0.00 0.00 92 1012.0
20260905080003 24 210 0.0 3.2 0.00 0.00 0.00 92 1012.0
20260905075503 24 0 0.0 0.0 0.00 0.00 0.00 93 1012.2
20260905075003 24 0 0.0 0.0 0.00 0.00 0.00 93 1012.2
20260905074503 24 0 0.0 0.0 0.00 0.00 0.00 93 1012.0
20260905074003 23 0 0.0 0.0 0.00 0.00 0.00 93 1012.1
20260905073503 23 0 0.0 0.0 0.00 0.00 0.00 93 1012.1
20260905073218 23 0 0.0 0.0 0.00 0.00 0.00 93 1012.2
20260905072717 23 0 0.0 0.0 0.00 0.00 0.00 93 1012.3
20260905072003 23 0 0.0 0.0 0.00 0.00 0.00 93 1012.1
20260905071717 24 0 0.0 0.0 0.00 0.00 0.00 93 1012.2
20260905071218 24 0 0.0 0.0 0.00 0.00 0.00 93 1012.3
20260905070503 24 210 0.0 3.2 0.00 0.00 0.00 93 1012.4
20260905070003 24 0 0.0 0.0 0.00 0.00 0.00 93 1012.4
20260905065503 24 0 0.0 0.0 0.00 0.00 0.00 93 1012.5
20260905065003 24 0 0.0 0.0 0.00 0.00 0.00 93 1012.5
20260905064717 24 0 0.0 0.0 0.00 0.00 0.00 93 1012.5
20260905064003 24 0 0.0 0.0 0.00 0.00 0.00 93 1012.7
20260905063503 24 0 0.0 0.0 0.00 0.00 0.00 93 1012.7
20260905063217 24 0 0.0 0.0 0.00 0.00 0.00 93 1012.7
20260905062717 23 0 0.0 0.0 0.00 0.00 0.00 93 1012.7
20260905062003 24 0 0.0 0.0 0.00 0.00 0.00 92 1012.8
20260905061503 24 0 0.0 0.0 0.00 0.00 0.00 92 1012.9
20260905061003 24 0 0.0 0.0 0.00 0.00 0.00 93 1013.0
20260905060503 24 0 0.0 0.0 0.00 0.00 0.00 93 1013.0
20260905060003 24 0 0.0 0.0 0.00 0.00 0.00 93 1013.1
20260905055503 24 0 0.0 0.0 0.00 0.00 0.00 92 1013.1
20260905055003 24 0 0.0 0.0 0.00 0.00 0.00 92 1013.2
20260905054716 24 0 0.0 0.0 0.00 0.00 0.00 92 1013.2
20260905054003 24 0 0.0 0.0 0.00 0.00 0.00 92 1013.2
20260905053503 24 0 0.0 0.0 0.00 0.00 0.00 92 1013.2
20260905053003 24 0 0.0 0.0 0.00 0.00 0.00 92 1013.3
20260905052503 24 0 0.0 0.0 0.00 0.00 0.00 92 1013.2
20260905052003 24 0 0.0 0.0 0.00 0.00 0.00 92 1013.2
20260905051503 24 0 0.0 0.0 0.00 0.00 0.00 92 1013.3
20260905051003 24 0 0.0 0.0 0.00 0.00 0.00 91 1013.4
20260905050718 24 0 0.0 0.0 0.00 0.00 0.00 91 1013.4
20260905050217 24 0 0.0 0.0 0.00 0.00 0.00 91 1013.4
20260905045503 25 0 0.0 0.0 0.00 0.00 0.00 91 1013.5
20260905045003 25 0 0.0 0.0 0.00 0.00 0.00 91 1013.4
20260905044503 25 0 0.0 0.0 0.00 0.00 0.00 91 1013.5
20260905044003 25 0 0.0 0.0 0.00 0.00 0.00 91 1013.5
20260905043503 25 0 0.0 0.0 0.00 0.00 0.00 90 1013.5
20260905043003 25 0 0.0 0.0 0.00 0.00 0.00 90 1013.5
20260905042503 25 0 0.0 0.0 0.00 0.00 0.00 90 1013.4
20260905042217 25 0 0.0 0.0 0.00 0.00 0.00 90 1013.4
20260905041503 25 0 0.0 0.0 0.00 0.00 0.00 90 1013.4
20260905041003 25 0 0.0 0.0 0.00 0.00 0.00 90 1013.3
20260905040503 25 0 0.0 0.0 0.00 0.00 0.00 90 1013.3
20260905040216 25 0 0.0 0.0 0.00 0.00 0.00 89 1013.3
20260905035503 25 0 0.0 0.0 0.00 0.00 0.00 89 1013.4
20260905035003 25 0 0.0 0.0 0.00 0.00 0.00 89 1013.4
20260905034503 25 0 0.0 0.0 0.00 0.00 0.00 88 1013.3
20260905034003 25 0 0.0 0.0 0.00 0.00 0.00 88 1013.4
20260905033503 25 0 0.0 0.0 0.00 0.00 0.00 88 1013.4
20260905033003 26 0 0.0 0.0 0.00 0.00 0.00 88 1013.4
20260905032717 26 0 0.0 0.0 0.00 0.00 0.00 88 1013.4
20260905032003 26 0 0.0 0.0 0.00 0.00 0.00 88 1013.5
20260905031503 26 0 0.0 0.0 0.00 0.00 0.00 88 1013.5
20260905031216 26 0 0.0 0.0 0.00 0.00 0.00 88 1013.5
20260905030717 26 0 0.0 0.0 0.00 0.00 0.00 88 1013.5
20260905030218 26 0 0.0 0.0 0.00 0.00 0.00 88 1013.5
20260905025503 26 0 0.0 0.0 0.00 0.00 0.00 88 1013.4
20260905025218 26 0 0.0 0.0 0.00 0.00 0.00 88 1013.4
20260905024503 26 0 0.0 0.0 0.00 0.00 0.00 87 1013.2
20260905024003 26 0 0.0 0.0 0.00 0.00 0.00 87 1013.2
20260905023503 26 0 0.0 0.0 0.00 0.00 0.00 87 1013.3
20260905023003 26 0 0.0 0.0 0.00 0.00 0.00 87 1013.3
20260905022503 26 0 0.0 0.0 0.00 0.00 0.00 87 1013.4
20260905022003 26 0 0.0 0.0 0.00 0.00 0.00 87 1013.4
20260905021503 26 0 0.0 0.0 0.00 0.00 0.00 87 1013.3
20260905021003 26 0 0.0 0.0 0.00 0.00 0.00 87 1013.3
20260905020717 26 0 0.0 0.0 0.00 0.00 0.00 86 1013.2
20260905020003 26 0 0.0 0.0 0.00 0.00 0.00 86 1013.2
20260905015503 26 0 0.0 0.0 0.00 0.00 0.00 86 1013.1
20260905015003 26 0 0.0 0.0 0.00 0.00 0.00 86 1013.1
20260905014503 26 0 0.0 0.0 0.00 0.00 0.00 86 1013.1
20260905014003 26 0 0.0 0.0 0.00 0.00 0.00 85 1013.1
20260905013717 26 0 0.0 0.0 0.00 0.00 0.00 85 1013.1
20260905013003 27 0 0.0 0.0 0.00 0.00 0.00 85 1013.1
20260905012503 27 0 0.0 0.0 0.00 0.00 0.00 85 1013.1
20260905012003 27 0 0.0 0.0 0.00 0.00 0.00 84 1013.0
20260905011717 27 0 0.0 0.0 0.00 0.00 0.00 84 1013.0
20260905011003 27 0 0.0 0.0 0.00 0.00 0.00 83 1012.9
20260905010503 28 0 0.0 0.0 0.00 0.00 0.00 82 1012.7
20260905010003 28 0 0.0 0.0 0.00 0.00 0.00 82 1012.7
20260905005503 28 0 0.0 0.0 0.00 0.00 0.00 81 1012.6
20260905005003 28 0 0.0 0.0 0.00 0.00 0.00 81 1012.7
20260905004503 28 0 0.0 0.0 0.00 0.00 0.00 81 1012.5